createdAt,value
2023-02-24T00:01:37.678Z,22.38
2023-02-24T00:04:08.378Z,22.13
2023-02-24T00:06:41.007Z,21.52
2023-02-24T00:09:10.997Z,19.67
2023-02-24T00:11:43.542Z,19.08
2023-02-24T00:14:15.830Z,21.87
2023-02-24T00:16:45.054Z,21.08
2023-02-24T00:19:16.225Z,21.50
2023-02-24T00:21:44.927Z,21.48
2023-02-24T00:24:13.280Z,18.45
2023-02-24T00:26:41.505Z,18.45
2023-02-24T00:29:12.462Z,21.02
2023-02-24T00:31:42.937Z,20.02
2023-02-24T00:34:13.175Z,17.20
2023-02-24T00:36:41.585Z,19.45
2023-02-24T00:39:12.270Z,20.10
2023-02-24T00:41:42.341Z,20.20
2023-02-24T00:44:13.373Z,18.77
2023-02-24T00:46:44.592Z,19.55
2023-02-24T00:49:16.834Z,19.38
2023-02-24T00:51:48.459Z,20.77
2023-02-24T00:54:18.692Z,16.15
2023-02-24T00:56:47.996Z,22.35
2023-02-24T00:59:18.573Z,23.23
2023-02-24T01:01:49.805Z,23.77
2023-02-24T01:04:18.926Z,27.00
2023-02-24T01:06:48.407Z,23.67
2023-02-24T01:09:20.052Z,24.85
2023-02-24T01:12:08.016Z,25.55
2023-02-24T01:14:36.983Z,25.77
2023-02-24T01:17:08.705Z,24.80
2023-02-24T01:19:37.684Z,24.05
2023-02-24T01:22:07.573Z,25.42
2023-02-24T01:24:38.028Z,25.25
2023-02-24T01:27:08.176Z,27.58
2023-02-24T01:29:39.372Z,25.55
2023-02-24T01:32:16.805Z,24.77
2023-02-24T01:34:44.556Z,28.02
2023-02-24T01:37:16.192Z,28.27
2023-02-24T01:39:44.579Z,26.65
2023-02-24T01:42:16.343Z,28.45
2023-02-24T01:45:06.851Z,29.60
2023-02-24T01:47:38.613Z,29.33
2023-02-24T01:50:10.875Z,31.60
2023-02-24T01:52:39.853Z,29.40
2023-02-24T01:55:13.308Z,31.45
2023-02-24T01:57:46.048Z,30.17
2023-02-24T02:00:32.449Z,32.90
2023-02-24T02:03:07.899Z,33.00
2023-02-24T02:05:35.481Z,34.33
2023-02-24T02:08:05.901Z,34.53
2023-02-24T02:10:34.036Z,34.85
2023-02-24T02:13:04.497Z,35.08
2023-02-24T02:15:36.311Z,38.42
2023-02-24T02:18:12.607Z,33.72
2023-02-24T02:21:04.061Z,32.85
2023-02-24T02:23:57.883Z,38.63
2023-02-24T02:26:48.742Z,37.88
2023-02-24T02:29:47.553Z,34.80
2023-02-24T02:32:51.724Z,37.55
2023-02-24T02:35:24.156Z,36.67
2023-02-24T02:37:56.894Z,37.13
2023-02-24T02:40:29.136Z,33.33
2023-02-24T02:43:03.972Z,39.45
2023-02-24T02:45:40.132Z,37.88
2023-02-24T02:48:13.251Z,34.65
2023-02-24T02:50:49.723Z,35.58
2023-02-24T02:53:25.486Z,35.03
2023-02-24T02:55:57.874Z,41.35
2023-02-24T02:58:31.746Z,37.53
2023-02-24T03:01:02.585Z,36.88
2023-02-24T03:03:33.197Z,38.45
2023-02-24T03:06:07.424Z,37.17
2023-02-24T03:08:40.328Z,40.08
2023-02-24T03:11:10.533Z,29.48
2023-02-24T03:13:42.309Z,40.13
2023-02-24T03:16:12.550Z,39.13
2023-02-24T03:18:50.785Z,39.58
2023-02-24T03:21:30.651Z,39.25
2023-02-24T03:23:58.533Z,40.88
2023-02-24T03:26:30.430Z,42.15
2023-02-24T03:29:07.366Z,41.25
2023-02-24T03:31:43.589Z,39.50
2023-02-24T03:34:19.028Z,47.53
2023-02-24T03:36:48.992Z,44.17
2023-02-24T03:39:17.315Z,44.58
2023-02-24T03:41:59.911Z,42.63
2023-02-24T03:46:57.691Z,42.17
2023-02-24T03:49:25.602Z,45.28
2023-02-24T03:52:09.665Z,45.38
2023-02-24T03:54:52.674Z,43.58
2023-02-24T03:57:34.681Z,40.22
2023-02-24T04:00:22.393Z,37.33
2023-02-24T04:03:04.182Z,41.80
2023-02-24T04:05:37.517Z,43.63
2023-02-24T04:08:10.112Z,43.80
2023-02-24T04:10:42.185Z,44.30
2023-02-24T04:13:19.721Z,41.03
2023-02-24T04:15:57.295Z,38.88
2023-02-24T04:18:29.059Z,43.47
2023-02-24T04:21:00.174Z,43.63
2023-02-24T04:23:33.755Z,41.17
2023-02-24T04:26:02.941Z,41.22
2023-02-24T04:28:32.178Z,42.58
2023-02-24T04:31:05.873Z,42.78
2023-02-24T04:33:35.516Z,44.47
2023-02-24T04:36:03.195Z,45.97
2023-02-24T04:38:36.819Z,40.13
2023-02-24T04:41:05.214Z,40.80
2023-02-24T04:43:32.728Z,37.97
2023-02-24T04:46:00.328Z,38.33
2023-02-24T04:48:30.065Z,37.33
2023-02-24T04:51:02.414Z,38.90
2023-02-24T04:53:30.214Z,41.97
2023-02-24T04:56:08.219Z,38.58
2023-02-24T04:58:37.318Z,38.85
2023-02-24T05:01:10.435Z,41.03
2023-02-24T05:03:38.771Z,38.92
2023-02-24T05:06:08.572Z,44.15
2023-02-24T05:08:38.503Z,44.13
2023-02-24T05:11:08.324Z,43.17
2023-02-24T05:13:37.550Z,42.88
2023-02-24T05:16:07.505Z,46.13
2023-02-24T05:18:36.891Z,44.55
2023-02-24T05:21:25.372Z,43.90
2023-02-24T05:23:55.366Z,47.33
2023-02-24T05:26:25.662Z,50.75
2023-02-24T05:28:56.372Z,50.90
2023-02-24T05:31:27.057Z,45.08
2023-02-24T05:33:57.510Z,49.10
2023-02-24T05:36:26.516Z,47.40
2023-02-24T05:38:57.841Z,47.90
2023-02-24T05:41:32.350Z,45.50
2023-02-24T05:44:04.668Z,43.35
2023-02-24T05:46:34.362Z,46.38
2023-02-24T05:49:04.676Z,47.15
2023-02-24T05:51:35.409Z,43.65
2023-02-24T05:54:04.591Z,44.75
2023-02-24T05:56:34.824Z,46.10
2023-02-24T05:59:03.762Z,42.40
2023-02-24T06:01:32.958Z,44.03
2023-02-24T06:04:05.944Z,39.85
2023-02-24T06:06:38.042Z,42.42
2023-02-24T06:09:10.720Z,40.10
2023-02-24T06:11:41.632Z,38.92
2023-02-24T06:14:10.539Z,39.45
2023-02-24T06:16:40.699Z,40.85
2023-02-24T06:19:09.882Z,39.83
2023-02-24T06:21:41.052Z,42.17
2023-02-24T06:24:14.383Z,41.50
2023-02-24T06:26:43.998Z,46.33
2023-02-24T06:29:15.550Z,42.38
2023-02-24T06:31:44.124Z,42.85
2023-02-24T06:34:13.381Z,40.83
2023-02-24T06:36:43.061Z,42.20
2023-02-24T06:39:14.387Z,46.25
2023-02-24T06:41:43.643Z,44.15
2023-02-24T06:44:11.280Z,42.95
2023-02-24T06:46:38.812Z,51.47
2023-02-24T06:49:06.373Z,47.15
2023-02-24T06:51:33.987Z,49.00
2023-02-24T06:54:02.732Z,47.47
2023-02-24T06:56:32.335Z,49.03
2023-02-24T06:59:01.467Z,46.38
2023-02-24T07:01:29.820Z,50.40
2023-02-24T07:04:20.205Z,47.53
2023-02-24T07:06:52.092Z,48.40
2023-02-24T07:09:22.367Z,45.70
2023-02-24T07:11:52.208Z,42.90
2023-02-24T07:14:23.005Z,45.35
2023-02-24T07:16:54.216Z,50.00
2023-02-24T07:19:24.251Z,45.67
2023-02-24T07:21:52.687Z,42.53
2023-02-24T07:24:25.879Z,44.20
2023-02-24T07:26:58.079Z,42.00
2023-02-24T07:29:29.015Z,40.22
2023-02-24T07:32:01.421Z,40.58
2023-02-24T07:34:29.200Z,41.70
2023-02-24T07:36:57.769Z,44.92
2023-02-24T07:39:25.597Z,55.38
2023-02-24T07:41:55.444Z,44.42
2023-02-24T07:44:24.462Z,45.95
2023-02-24T07:46:54.259Z,43.05
2023-02-24T07:49:25.870Z,47.05
2023-02-24T07:51:57.700Z,44.95
2023-02-24T07:54:28.636Z,44.40
2023-02-24T07:56:59.049Z,45.72
2023-02-24T07:59:29.447Z,42.67
2023-02-24T08:01:58.574Z,45.15
2023-02-24T08:04:28.499Z,41.90
2023-02-24T08:06:57.429Z,40.83
2023-02-24T08:09:44.215Z,47.63
2023-02-24T08:12:13.711Z,41.47
2023-02-24T08:14:44.605Z,45.05
2023-02-24T08:17:19.746Z,42.20
2023-02-24T08:19:48.304Z,40.95
2023-02-24T08:22:21.078Z,38.80
2023-02-24T08:24:52.826Z,37.78
2023-02-24T08:27:22.343Z,39.28
2023-02-24T08:30:01.603Z,42.17
2023-02-24T08:32:34.575Z,44.33
2023-02-24T08:35:04.632Z,39.08
2023-02-24T08:37:39.595Z,43.72
2023-02-24T08:40:29.380Z,43.97
2023-02-24T08:42:58.571Z,39.22
2023-02-24T08:45:28.705Z,42.90
2023-02-24T08:48:01.497Z,43.40
2023-02-24T08:50:32.563Z,45.03
2023-02-24T08:53:01.018Z,42.45
2023-02-24T08:55:32.937Z,42.65
2023-02-24T08:58:01.644Z,38.83
2023-02-24T09:00:48.901Z,44.58
2023-02-24T09:03:28.821Z,38.97
2023-02-24T09:06:01.944Z,39.53
2023-02-24T09:08:33.511Z,41.45
2023-02-24T09:11:02.112Z,38.28
2023-02-24T09:13:32.963Z,37.38
2023-02-24T09:16:02.222Z,39.35
2023-02-24T09:18:38.315Z,41.38
2023-02-24T09:21:36.900Z,39.70
2023-02-24T09:24:07.660Z,44.05
2023-02-24T09:26:43.052Z,41.40
2023-02-24T09:29:32.824Z,42.35
2023-02-24T09:32:05.382Z,39.75
2023-02-24T09:34:36.401Z,28.20
2023-02-24T09:37:05.321Z,39.88
2023-02-24T09:39:55.400Z,38.22
2023-02-24T09:42:33.207Z,39.38
2023-02-24T09:45:04.315Z,40.78
2023-02-24T09:47:56.722Z,41.40
2023-02-24T09:51:02.546Z,40.63
2023-02-24T09:53:41.296Z,36.45
2023-02-24T09:56:22.042Z,36.72
2023-02-24T09:58:53.138Z,37.17
2023-02-24T10:01:42.642Z,32.53
2023-02-24T10:04:49.012Z,34.50
2023-02-24T10:07:25.312Z,31.77
2023-02-24T10:10:18.674Z,35.42
2023-02-24T10:12:51.082Z,25.10
2023-02-24T10:15:41.551Z,28.95
2023-02-24T10:18:28.273Z,27.80
2023-02-24T10:21:02.728Z,30.40
2023-02-24T10:23:46.435Z,27.98
2023-02-24T10:26:31.595Z,30.88
2023-02-24T10:29:08.961Z,25.73
2023-02-24T10:31:47.905Z,31.73
2023-02-24T10:34:25.440Z,26.45
2023-02-24T10:36:57.392Z,29.63
2023-02-24T10:39:27.010Z,26.77
2023-02-24T10:41:58.237Z,30.05
2023-02-24T10:44:35.928Z,28.83
2023-02-24T10:47:12.197Z,35.60
2023-02-24T10:49:56.704Z,35.70
2023-02-24T10:52:50.280Z,34.13
2023-02-24T10:55:29.111Z,36.08
2023-02-24T10:58:06.827Z,33.90
2023-02-24T11:01:12.461Z,38.50
2023-02-24T11:03:47.968Z,31.88
2023-02-24T11:06:52.519Z,31.17
2023-02-24T11:09:35.365Z,42.70
2023-02-24T11:12:33.099Z,43.77
2023-02-24T11:15:21.861Z,37.97
2023-02-24T11:17:53.367Z,42.42
2023-02-24T11:20:42.294Z,34.03
2023-02-24T11:23:18.732Z,33.25
2023-02-24T11:25:49.663Z,36.65
2023-02-24T11:28:37.674Z,36.55
2023-02-24T11:31:18.290Z,41.35
2023-02-24T11:33:52.390Z,35.78
2023-02-24T11:36:29.645Z,40.28
2023-02-24T11:39:18.755Z,40.78
2023-02-24T11:41:53.396Z,39.80
2023-02-24T11:44:29.018Z,38.35
2023-02-24T11:47:00.633Z,35.88
2023-02-24T11:49:36.985Z,35.63
2023-02-24T11:52:08.046Z,37.30
2023-02-24T11:54:40.066Z,37.33
2023-02-24T11:57:15.380Z,32.35
2023-02-24T11:59:50.037Z,34.88
2023-02-24T12:02:24.434Z,33.17
2023-02-24T12:05:00.760Z,34.97
2023-02-24T12:07:34.409Z,30.65
2023-02-24T12:10:16.625Z,31.63
2023-02-24T12:12:51.679Z,30.25
2023-02-24T12:15:25.596Z,34.40
2023-02-24T12:18:04.234Z,32.40
2023-02-24T12:20:37.014Z,32.22
2023-02-24T12:23:17.174Z,35.17
2023-02-24T12:26:06.667Z,32.67
2023-02-24T12:28:48.623Z,33.17
2023-02-24T12:31:29.190Z,34.60
2023-02-24T12:34:08.573Z,34.47
2023-02-24T12:37:11.250Z,34.35
2023-02-24T12:39:48.870Z,33.55
2023-02-24T12:42:26.678Z,35.03
2023-02-24T12:45:02.121Z,37.03
2023-02-24T12:47:43.872Z,33.90
2023-02-24T12:50:22.720Z,35.08
2023-02-24T12:53:01.378Z,37.60
2023-02-24T12:55:37.930Z,33.28
2023-02-24T12:58:12.825Z,32.45
2023-02-24T13:00:51.241Z,34.80
2023-02-24T13:03:33.709Z,38.00
2023-02-24T13:06:13.208Z,35.78
2023-02-24T13:08:50.733Z,36.10
2023-02-24T13:11:28.765Z,36.75
2023-02-24T13:14:00.549Z,34.55
2023-02-24T13:16:29.472Z,34.85
2023-02-24T13:19:07.794Z,28.63
2023-02-24T13:21:35.532Z,33.88
2023-02-24T13:24:03.922Z,33.10
2023-02-24T13:26:33.111Z,30.85
2023-02-24T13:29:03.273Z,36.40
2023-02-24T13:31:43.605Z,29.92
2023-02-24T13:34:30.980Z,32.47
2023-02-24T13:36:58.616Z,37.22
2023-02-24T13:39:34.250Z,35.30
2023-02-24T13:42:04.622Z,31.08
2023-02-24T13:44:32.877Z,31.55
2023-02-24T13:47:35.602Z,31.90
2023-02-24T13:50:19.659Z,35.38
2023-02-24T13:53:05.331Z,30.80
2023-02-24T13:55:47.843Z,36.63
2023-02-24T13:58:42.037Z,31.13
2023-02-24T14:01:12.293Z,33.85
2023-02-24T14:03:42.092Z,32.50
2023-02-24T14:06:19.106Z,36.58
2023-02-24T14:08:50.899Z,31.83
2023-02-24T14:11:21.730Z,31.60
2023-02-24T14:13:52.114Z,33.72
2023-02-24T14:16:23.801Z,33.22
2023-02-24T14:18:56.335Z,30.02
2023-02-24T14:21:27.561Z,29.25
2023-02-24T14:24:00.302Z,27.08
2023-02-24T14:26:28.726Z,19.05
2023-02-24T14:29:01.348Z,32.97
2023-02-24T14:31:31.209Z,28.00
2023-02-24T14:34:02.386Z,28.45
2023-02-24T14:36:34.211Z,26.50
2023-02-24T14:39:07.945Z,28.58
2023-02-24T14:41:35.590Z,29.35
2023-02-24T14:44:16.431Z,25.25
2023-02-24T14:46:48.676Z,24.02
2023-02-24T14:49:21.260Z,24.48
2023-02-24T14:51:54.834Z,20.67
2023-02-24T14:54:36.292Z,22.80
2023-02-24T14:57:04.596Z,22.02
2023-02-24T14:59:35.273Z,21.38
2023-02-24T15:02:05.404Z,21.63
2023-02-24T15:04:37.007Z,20.27
2023-02-24T15:07:08.549Z,20.33
2023-02-24T15:09:41.802Z,21.23
2023-02-24T15:12:13.679Z,25.52
2023-02-24T15:14:47.998Z,19.00
2023-02-24T15:17:19.144Z,18.92
2023-02-24T15:19:48.938Z,21.02
2023-02-24T15:22:25.259Z,22.35
2023-02-24T15:24:55.627Z,24.98
2023-02-24T15:27:28.775Z,20.95
2023-02-24T15:30:02.346Z,21.70
2023-02-24T15:32:33.592Z,24.52
2023-02-24T15:35:02.306Z,26.00
2023-02-24T15:37:38.812Z,25.00
2023-02-24T15:40:18.687Z,23.80
2023-02-24T15:42:51.456Z,21.23
2023-02-24T15:45:31.132Z,22.90
2023-02-24T15:48:01.432Z,19.23
2023-02-24T15:50:30.725Z,20.45
2023-02-24T15:53:04.569Z,21.27
2023-02-24T15:55:32.705Z,21.02
2023-02-24T15:58:03.006Z,20.05
2023-02-24T16:00:32.243Z,20.20
2023-02-24T16:02:59.980Z,20.63
2023-02-24T16:05:27.790Z,21.25
2023-02-24T16:07:55.717Z,19.70
2023-02-24T16:10:27.798Z,21.67
2023-02-24T16:12:57.388Z,20.35
2023-02-24T16:15:27.974Z,20.55
2023-02-24T16:17:56.320Z,17.35
2023-02-24T16:20:28.173Z,18.65
2023-02-24T16:22:57.204Z,21.63
2023-02-24T16:25:27.205Z,19.60
2023-02-24T16:27:57.306Z,19.73
2023-02-24T16:30:30.217Z,18.20
2023-02-24T16:32:58.602Z,20.40
2023-02-24T16:35:27.554Z,21.15
2023-02-24T16:37:55.488Z,21.90
2023-02-24T16:40:27.813Z,18.38
2023-02-24T16:42:55.414Z,25.23
2023-02-24T16:45:26.608Z,24.38
2023-02-24T16:47:56.459Z,26.90
2023-02-24T16:50:26.373Z,22.67
2023-02-24T16:52:53.949Z,26.38
2023-02-24T16:55:21.528Z,22.48
2023-02-24T16:57:50.477Z,23.27
2023-02-24T17:00:23.586Z,21.25
2023-02-24T17:02:52.573Z,22.80
2023-02-24T17:05:22.542Z,24.27
2023-02-24T17:07:51.818Z,28.08
2023-02-24T17:10:20.450Z,23.38
2023-02-24T17:12:48.259Z,23.85
2023-02-24T17:15:19.335Z,24.20
2023-02-24T17:17:47.200Z,24.65
2023-02-24T17:20:16.804Z,21.75
2023-02-24T17:22:45.003Z,21.08
2023-02-24T17:25:16.176Z,28.52
2023-02-24T17:27:43.991Z,27.65
2023-02-24T17:30:14.306Z,26.52
2023-02-24T17:32:43.287Z,25.70
2023-02-24T17:35:11.186Z,26.73
2023-02-24T17:37:38.829Z,28.10
2023-02-24T17:40:07.625Z,28.13
2023-02-24T17:42:35.613Z,26.45
2023-02-24T17:45:03.845Z,27.67
2023-02-24T17:47:31.715Z,26.80
2023-02-24T17:50:00.650Z,24.20
2023-02-24T17:52:29.510Z,25.02
2023-02-24T17:54:58.788Z,26.15
2023-02-24T17:57:27.038Z,24.02
2023-02-24T17:59:54.611Z,30.70
2023-02-24T18:02:23.993Z,25.02
2023-02-24T18:04:51.713Z,26.55
2023-02-24T18:07:21.193Z,26.63
2023-02-24T18:09:48.941Z,29.17
2023-02-24T18:12:18.459Z,25.92
2023-02-24T18:14:48.393Z,24.73
2023-02-24T18:17:17.239Z,27.17
2023-02-24T18:19:44.821Z,26.63
2023-02-24T18:22:12.793Z,28.60
2023-02-24T18:24:41.832Z,25.48
2023-02-24T18:27:09.480Z,24.42
2023-02-24T18:29:37.080Z,25.02
2023-02-24T18:32:05.242Z,28.00
2023-02-24T18:34:33.069Z,27.45
2023-02-24T18:37:01.302Z,27.77
2023-02-24T18:39:29.580Z,26.95
2023-02-24T18:41:59.572Z,29.73
2023-02-24T18:44:28.360Z,25.83
2023-02-24T18:46:55.987Z,26.33
2023-02-24T18:49:23.753Z,26.50
2023-02-24T18:51:51.359Z,32.10
2023-02-24T18:54:19.462Z,27.08
2023-02-24T18:56:47.035Z,27.55
2023-02-24T18:59:15.942Z,24.73
2023-02-24T19:01:43.601Z,27.23
2023-02-24T19:04:17.632Z,28.20
2023-02-24T19:06:48.960Z,27.02
2023-02-24T19:09:21.367Z,28.48
2023-02-24T19:11:49.865Z,25.23
2023-02-24T19:14:18.815Z,25.60
2023-02-24T19:16:46.393Z,28.63
2023-02-24T19:19:16.270Z,26.38
2023-02-24T19:21:45.320Z,27.20
2023-02-24T19:24:13.663Z,26.52
2023-02-24T19:26:42.680Z,32.22
2023-02-24T19:29:10.893Z,25.25
2023-02-24T19:31:40.167Z,25.92
2023-02-24T19:34:11.112Z,27.15
2023-02-24T19:36:39.088Z,25.25
2023-02-24T19:39:10.305Z,28.05
2023-02-24T19:41:38.362Z,25.52
2023-02-24T19:44:06.492Z,28.42
2023-02-24T19:46:34.297Z,33.70
2023-02-24T19:49:03.593Z,25.25
2023-02-24T19:51:31.791Z,24.05
2023-02-24T19:54:02.618Z,34.28
2023-02-24T19:56:32.045Z,23.40
2023-02-24T19:59:01.271Z,22.60
2023-02-24T20:01:30.987Z,22.05
2023-02-24T20:04:00.277Z,26.88
2023-02-24T20:06:31.909Z,26.25
2023-02-24T20:09:00.010Z,27.35
2023-02-24T20:11:28.696Z,27.60
2023-02-24T20:13:56.655Z,23.08
2023-02-24T20:16:26.358Z,22.05
2023-02-24T20:18:55.518Z,22.17
2023-02-24T20:21:23.358Z,20.90
2023-02-24T20:23:52.425Z,22.60
2023-02-24T20:26:20.604Z,21.77
2023-02-24T20:28:48.873Z,21.75
2023-02-24T20:39:40.775Z,22.77
2023-02-24T20:42:08.427Z,21.23
2023-02-24T20:44:36.057Z,23.85
2023-02-24T20:47:03.645Z,22.00
2023-02-24T20:49:31.185Z,20.85
2023-02-24T20:51:58.787Z,20.38
2023-02-24T20:54:26.893Z,20.15
2023-02-24T20:56:55.905Z,23.40
2023-02-24T20:59:23.598Z,24.98
2023-02-24T21:01:51.813Z,25.55
2023-02-24T21:04:21.942Z,23.20
2023-02-24T21:11:49.984Z,8.70
2023-02-24T21:14:19.194Z,3.47
2023-02-24T21:16:46.930Z,7.15
2023-02-24T21:19:14.583Z,4.63
2023-02-24T21:21:42.105Z,3.17
2023-02-24T21:24:09.875Z,2.35
2023-02-24T21:26:37.442Z,2.83
2023-02-24T21:29:05.023Z,3.75
2023-02-24T21:31:34.089Z,4.68
2023-02-24T21:34:01.707Z,5.70
2023-02-24T21:36:29.339Z,5.32
2023-02-24T21:38:56.991Z,4.72
2023-02-24T21:41:24.931Z,3.38
2023-02-24T21:43:54.659Z,3.92
2023-02-24T21:46:22.821Z,4.40
2023-02-24T21:48:56.135Z,4.13
2023-02-24T21:51:24.788Z,7.07
2023-02-24T21:53:54.790Z,4.25
2023-02-24T21:56:24.583Z,5.65
2023-02-24T21:58:54.600Z,5.93
2023-02-24T22:01:25.111Z,4.65
2023-02-24T22:03:55.664Z,4.63
2023-02-24T22:06:23.992Z,4.38
2023-02-24T22:08:51.681Z,3.05
2023-02-24T22:11:20.108Z,3.50
2023-02-24T22:13:48.138Z,3.25
2023-02-24T22:16:18.023Z,3.50
2023-02-24T22:18:46.293Z,5.07
2023-02-24T22:21:18.239Z,4.60
2023-02-24T22:23:46.683Z,4.15
2023-02-24T22:26:14.849Z,3.47
2023-02-24T22:28:44.564Z,4.45
2023-02-24T22:31:13.714Z,3.83
2023-02-24T22:33:43.328Z,6.22
2023-02-24T22:36:14.062Z,4.70
2023-02-24T22:38:45.465Z,3.65
2023-02-24T22:41:15.370Z,4.78
2023-02-24T22:43:43.058Z,3.60
2023-02-24T22:46:14.211Z,5.60
2023-02-24T22:48:42.074Z,5.75
2023-02-24T22:51:11.866Z,6.10
2023-02-24T22:53:42.255Z,5.78
2023-02-24T22:56:12.828Z,6.47
2023-02-24T22:58:40.936Z,4.38
2023-02-24T23:01:10.407Z,3.65
2023-02-24T23:03:38.190Z,6.18
2023-02-24T23:06:08.235Z,6.05
2023-02-24T23:08:39.218Z,3.70
2023-02-24T23:11:09.105Z,2.47
2023-02-24T23:13:38.202Z,3.97
2023-02-24T23:16:08.304Z,2.95
2023-02-24T23:18:36.859Z,6.40
2023-02-24T23:21:07.932Z,3.45
2023-02-24T23:23:36.545Z,5.43
2023-02-24T23:26:04.388Z,2.92
2023-02-24T23:28:31.959Z,3.72
2023-02-24T23:31:00.884Z,3.28
2023-02-24T23:33:28.484Z,3.42
2023-02-24T23:35:56.209Z,4.50
2023-02-24T23:38:23.707Z,4.00
2023-02-24T23:40:51.851Z,3.78
2023-02-24T23:43:19.652Z,5.65
2023-02-24T23:45:47.245Z,3.63
2023-02-24T23:48:16.131Z,3.22
2023-02-24T23:50:45.902Z,6.07
2023-02-24T23:53:13.472Z,4.85
2023-02-24T23:55:41.868Z,3.58
2023-02-24T23:58:09.428Z,3.42
